Novomar — 5BCT2 — position and weather

sailwx.info

Track history (hours):
 
Tides and Currents Weather Stations Pressure Air Temp Water Temp Dewpoint Dewpoint Depression Visibility Wind Speed Wind Dir Waves Ship Positions

Novomar

Last reported at 2016-Dec-03 05:33 UTC. Time now 2016-Dec-03 11:37 UTC.
Position N 59°22' E 017°49'.

Length 89 m; draft 5.1 m.

Type: Ship. MMSI: 210974000.

Date/timePositionNaut miles runAvg speedWind from/ knotsBaromVisibWave heightAir tempDewpointWater temp
2016-Dec-03 05:33N 59°22' E 017°49'5 4.7
2016-Dec-03 04:33N 59°18' E 017°54'9 8.5
2016-Dec-03 03:31N 59°17' E 017°37'  
2016-Nov-24 20:10N 55°38' E 015°25'5 8.4
2016-Nov-24 19:33N 55°35' E 015°17'8 8.0
2016-Nov-24 18:33N 55°32' E 015°04'8 8.1
2016-Nov-24 17:33N 55°28' E 014°52'8 8.2
2016-Nov-24 16:33N 55°24' E 014°39'8 7.9
2016-Nov-24 15:33N 55°18' E 014°31'8 8.3
2016-Nov-24 14:33N 55°11' E 014°21'8 8.3
2016-Nov-24 13:33N 55°05' E 014°12'8 8.0
2016-Nov-24 12:33N 55°00' E 013°60'42 8.5
2016-Nov-24 07:33N 54°47' E 012°50'9 8.9
2016-Nov-24 06:33N 54°43' E 012°37'20 8.7
2016-Nov-24 04:16N 54°28' E 012°15'6 8.0
2016-Nov-24 03:33N 54°24' E 012°07'9 8.9
2016-Nov-24 02:33N 54°25' E 011°52'9 8.9
2016-Nov-24 01:34N 54°27' E 011°37'9 9.1
2016-Nov-24 00:34N 54°31' E 011°23'9 8.8
2016-Nov-23 23:33N 54°35' E 011°09'9 8.8
2016-Nov-23 22:33N 54°34' E 010°54'9 8.8
2016-Nov-23 21:33N 54°33' E 010°39'9 8.8
2016-Nov-23 20:33N 54°31' E 010°25'9 8.6
2016-Nov-23 19:33N 54°25' E 010°13'4 4.5
2016-Nov-23 18:33N 54°22' E 010°08'7 7.1
2016-Nov-23 17:33N 54°20' E 009°56'8 7.5
2016-Nov-23 16:33N 54°20' E 009°43'23 7.5
2016-Nov-23 13:33N 54°02' E 009°18'6 6.3
2016-Nov-23 12:33N 53°57' E 009°14'5 4.9
2016-Nov-23 11:33N 53°53' E 009°08'7 6.6
2016-Nov-23 10:33N 53°51' E 008°58'8 7.8
2016-Nov-23 09:33N 53°51' E 008°45'9 8.4
2016-Nov-23 08:32N 53°58' E 008°35'9 9.0
2016-Nov-23 07:33N 53°59' E 008°20'9 9.2
2016-Nov-23 06:33N 53°59' E 008°04'  
Track history (hours):
 
Tides and Currents Weather Stations Pressure Air Temp Water Temp Dewpoint Dewpoint Depression Visibility Wind Speed Wind Dir Waves Ship Positions

Novomar

Last reported at 2016-Dec-03 05:33 UTC. Time now 2016-Dec-03 11:37 UTC.
Position N 59°22' E 017°49'.

Length 89 m; draft 5.1 m.

Type: Ship. MMSI: 210974000.

Date/timePositionNaut miles runAvg speedWind from/ knotsBaromVisibWave heightAir tempDewpointWater temp
2016-Dec-03 05:33N 59°22' E 017°49'5 4.7
2016-Dec-03 04:33N 59°18' E 017°54'9 8.5
2016-Dec-03 03:31N 59°17' E 017°37'  
2016-Nov-24 20:10N 55°38' E 015°25'5 8.4
2016-Nov-24 19:33N 55°35' E 015°17'8 8.0
2016-Nov-24 18:33N 55°32' E 015°04'8 8.1
2016-Nov-24 17:33N 55°28' E 014°52'8 8.2
2016-Nov-24 16:33N 55°24' E 014°39'8 7.9
2016-Nov-24 15:33N 55°18' E 014°31'8 8.3
2016-Nov-24 14:33N 55°11' E 014°21'8 8.3
2016-Nov-24 13:33N 55°05' E 014°12'8 8.0
2016-Nov-24 12:33N 55°00' E 013°60'42 8.5
2016-Nov-24 07:33N 54°47' E 012°50'9 8.9
2016-Nov-24 06:33N 54°43' E 012°37'20 8.7
2016-Nov-24 04:16N 54°28' E 012°15'6 8.0
2016-Nov-24 03:33N 54°24' E 012°07'9 8.9
2016-Nov-24 02:33N 54°25' E 011°52'9 8.9
2016-Nov-24 01:34N 54°27' E 011°37'9 9.1
2016-Nov-24 00:34N 54°31' E 011°23'9 8.8
2016-Nov-23 23:33N 54°35' E 011°09'9 8.8
2016-Nov-23 22:33N 54°34' E 010°54'9 8.8
2016-Nov-23 21:33N 54°33' E 010°39'9 8.8
2016-Nov-23 20:33N 54°31' E 010°25'9 8.6
2016-Nov-23 19:33N 54°25' E 010°13'4 4.5
2016-Nov-23 18:33N 54°22' E 010°08'7 7.1
2016-Nov-23 17:33N 54°20' E 009°56'8 7.5
2016-Nov-23 16:33N 54°20' E 009°43'23 7.5
2016-Nov-23 13:33N 54°02' E 009°18'6 6.3
2016-Nov-23 12:33N 53°57' E 009°14'5 4.9
2016-Nov-23 11:33N 53°53' E 009°08'7 6.6
2016-Nov-23 10:33N 53°51' E 008°58'8 7.8
2016-Nov-23 09:33N 53°51' E 008°45'9 8.4
2016-Nov-23 08:32N 53°58' E 008°35'9 9.0
2016-Nov-23 07:33N 53°59' E 008°20'9 9.2
2016-Nov-23 06:33N 53°59' E 008°04'  

Dump ship's entire track history